createdAt,value
2023-03-20T00:00:12.204Z,6.30
2023-03-20T00:02:45.222Z,6.35
2023-03-20T00:05:23.934Z,6.36
2023-03-20T00:08:52.232Z,6.35
2023-03-20T00:12:27.995Z,6.34
2023-03-20T00:15:46.198Z,6.33
2023-03-20T00:19:19.333Z,6.32
2023-03-20T00:22:52.956Z,6.29
2023-03-20T00:26:33.452Z,6.30
2023-03-20T00:29:58.866Z,6.32
2023-03-20T00:36:33.376Z,6.42
2023-03-20T00:39:08.015Z,6.38
2023-03-20T00:41:46.123Z,6.35
2023-03-20T00:44:25.606Z,6.34
2023-03-20T00:47:01.869Z,6.32
2023-03-20T00:49:46.607Z,6.30
2023-03-20T00:53:19.864Z,6.26
2023-03-20T00:56:56.995Z,6.24
2023-03-20T01:10:42.083Z,6.24
2023-03-20T01:14:00.454Z,6.15
2023-03-20T01:17:33.832Z,6.10
2023-03-20T01:21:07.511Z,6.08
2023-03-20T01:23:40.278Z,6.08
2023-03-20T01:26:26.280Z,6.07
2023-03-20T01:28:59.060Z,6.06
2023-03-20T01:31:33.030Z,6.04
2023-03-20T01:34:06.840Z,6.03
2023-03-20T01:36:40.921Z,6.01
2023-03-20T01:40:28.100Z,5.95
2023-03-20T01:43:34.039Z,5.94
2023-03-20T01:47:16.261Z,5.93
2023-03-20T01:50:50.824Z,5.91
2023-03-20T01:53:26.682Z,5.91
2023-03-20T01:56:03.071Z,5.91
2023-03-20T01:58:49.401Z,5.89
2023-03-20T02:01:23.030Z,5.86
2023-03-20T02:03:54.210Z,5.86
2023-03-20T02:06:46.276Z,5.81
2023-03-20T02:10:20.786Z,5.83
2023-03-20T02:13:57.390Z,5.82
2023-03-20T02:21:23.837Z,5.83
2023-03-20T02:24:21.105Z,5.85
2023-03-20T02:27:08.771Z,5.86
2023-03-20T02:30:24.681Z,5.86
2023-03-20T02:33:34.739Z,5.85
2023-03-20T02:36:40.379Z,5.86
2023-03-20T02:40:22.838Z,5.82
2023-03-20T02:44:06.471Z,5.83
2023-03-20T02:51:13.764Z,5.82
2023-03-20T02:53:54.788Z,5.84
2023-03-20T02:56:44.611Z,5.85
2023-03-20T02:59:28.345Z,5.87
2023-03-20T03:02:07.186Z,5.88
2023-03-20T03:04:43.363Z,5.87
2023-03-20T03:07:19.763Z,5.85
2023-03-20T03:10:57.302Z,5.88
2023-03-20T03:14:37.333Z,5.89
2023-03-20T03:35:33.413Z,5.94
2023-03-20T03:38:24.062Z,5.94
2023-03-20T03:41:13.064Z,5.94
2023-03-20T03:43:52.605Z,5.92
2023-03-20T03:46:34.653Z,5.93
2023-03-20T03:49:10.632Z,5.94
2023-03-20T03:51:50.373Z,5.93
2023-03-20T03:55:27.604Z,5.90
2023-03-20T04:02:49.713Z,5.83
2023-03-20T04:06:23.063Z,5.78
2023-03-20T04:08:58.286Z,5.79
2023-03-20T04:11:37.382Z,5.80
2023-03-20T04:14:10.057Z,5.80
2023-03-20T04:16:48.576Z,5.79
2023-03-20T04:19:21.340Z,5.80
2023-03-20T04:21:55.685Z,5.83
2023-03-20T04:24:28.854Z,5.84
2023-03-20T04:27:01.681Z,5.87
2023-03-20T04:29:37.006Z,5.87
2023-03-20T04:32:46.570Z,5.87
2023-03-20T04:35:47.127Z,5.87
2023-03-20T04:39:20.887Z,5.86
2023-03-20T04:42:54.884Z,5.85
2023-03-20T04:53:17.254Z,5.85
2023-03-20T04:55:56.327Z,5.87
2023-03-20T04:58:29.724Z,5.86
2023-03-20T05:01:02.557Z,5.88
2023-03-20T05:03:36.375Z,5.89
2023-03-20T05:06:10.329Z,5.87
2023-03-20T05:08:46.833Z,5.87
2023-03-20T05:11:19.526Z,5.90
2023-03-20T05:14:09.164Z,5.85
2023-03-20T05:16:42.154Z,5.83
2023-03-20T05:19:41.404Z,5.86
2023-03-20T05:22:21.677Z,5.87
2023-03-20T05:25:53.126Z,5.93
2023-03-20T05:29:29.320Z,6.00
2023-03-20T05:36:35.252Z,6.09
2023-03-20T05:40:24.500Z,6.13
2023-03-20T05:51:10.324Z,6.42
2023-03-20T05:54:44.832Z,6.55
2023-03-20T05:58:24.801Z,6.68
2023-03-20T06:02:07.677Z,6.79
2023-03-20T06:05:46.016Z,6.88
2023-03-20T06:08:19.229Z,6.95
2023-03-20T06:10:54.169Z,7.00
2023-03-20T06:13:26.957Z,7.06
2023-03-20T06:16:00.429Z,7.10
2023-03-20T06:18:34.138Z,7.12
2023-03-20T06:21:08.339Z,7.17
2023-03-20T06:24:43.645Z,7.22
2023-03-20T06:28:17.369Z,7.27
2023-03-20T06:31:53.034Z,7.34
2023-03-20T06:41:46.048Z,7.93
2023-03-20T06:45:19.871Z,8.16
2023-03-20T06:48:57.156Z,8.46
2023-03-20T06:52:30.640Z,8.60
2023-03-20T06:56:22.744Z,9.00
2023-03-20T07:06:49.502Z,10.04
2023-03-20T07:09:26.032Z,10.18
2023-03-20T07:12:01.674Z,10.45
2023-03-20T07:21:27.736Z,11.05
2023-03-20T07:25:01.332Z,11.12
2023-03-20T07:38:44.754Z,11.34
2023-03-20T07:41:18.638Z,11.29
2023-03-20T07:43:59.028Z,11.40
2023-03-20T07:46:58.955Z,11.52
2023-03-20T07:49:31.779Z,11.67
2023-03-20T07:52:05.068Z,11.77
2023-03-20T07:55:40.039Z,11.75
2023-03-20T07:59:14.070Z,11.76
2023-03-20T08:06:14.398Z,12.06
2023-03-20T08:08:45.558Z,12.28
2023-03-20T08:11:18.970Z,12.22
2023-03-20T08:13:52.061Z,12.14
2023-03-20T08:16:25.546Z,12.02
2023-03-20T08:19:01.697Z,12.00
2023-03-20T08:21:35.576Z,11.99
2023-03-20T08:25:10.348Z,12.00
2023-03-20T08:39:30.297Z,11.91
2023-03-20T08:42:04.649Z,11.94
2023-03-20T08:44:37.581Z,11.93
2023-03-20T08:47:11.786Z,11.90
2023-03-20T08:49:44.777Z,11.90
2023-03-20T08:52:17.933Z,11.91
2023-03-20T08:54:50.558Z,11.93
2023-03-20T08:57:24.742Z,12.00
2023-03-20T08:59:59.288Z,12.05
2023-03-20T09:02:32.403Z,12.14
2023-03-20T09:05:05.305Z,12.24
2023-03-20T09:07:39.637Z,12.37
2023-03-20T09:10:14.736Z,12.66
2023-03-20T09:12:47.865Z,12.93
2023-03-20T09:15:20.533Z,13.30
2023-03-20T09:17:53.512Z,13.57
2023-03-20T09:20:26.191Z,13.66
2023-03-20T09:23:00.084Z,13.64
2023-03-20T09:25:32.772Z,13.67
2023-03-20T09:28:05.894Z,13.74
2023-03-20T09:30:37.353Z,13.83
2023-03-20T09:33:10.829Z,13.71
2023-03-20T09:35:44.118Z,13.91
2023-03-20T09:38:17.536Z,14.08
2023-03-20T09:40:55.672Z,14.25
2023-03-20T09:43:38.019Z,14.38
2023-03-20T09:46:29.059Z,14.45
2023-03-20T09:49:09.499Z,14.37
2023-03-20T09:51:48.292Z,14.24
2023-03-20T09:54:29.420Z,14.26
2023-03-20T09:57:03.356Z,14.27
2023-03-20T09:59:38.695Z,14.37
2023-03-20T10:02:20.169Z,14.42
2023-03-20T10:04:53.904Z,14.37
2023-03-20T10:07:28.417Z,14.35
2023-03-20T10:10:02.436Z,14.34
2023-03-20T10:12:52.011Z,14.35
2023-03-20T10:15:40.223Z,14.30
2023-03-20T10:18:23.310Z,14.18
2023-03-20T10:21:05.124Z,14.32
2023-03-20T10:23:44.431Z,14.29
2023-03-20T10:26:20.830Z,14.36
2023-03-20T10:28:58.760Z,14.50
2023-03-20T10:31:46.940Z,14.74
2023-03-20T10:34:32.016Z,14.94
2023-03-20T10:37:21.347Z,15.13
2023-03-20T10:40:06.372Z,15.17
2023-03-20T10:42:43.230Z,15.33
2023-03-20T10:45:29.480Z,15.31
2023-03-20T10:48:06.671Z,15.18
2023-03-20T10:50:45.926Z,15.06
2023-03-20T10:53:26.937Z,14.88
2023-03-20T10:56:05.386Z,14.69
2023-03-20T10:58:42.180Z,14.48
2023-03-20T11:01:14.623Z,14.36
2023-03-20T11:03:47.905Z,14.29
2023-03-20T11:06:25.467Z,14.27
2023-03-20T11:08:58.659Z,14.24
2023-03-20T11:11:36.568Z,14.24
2023-03-20T11:14:21.722Z,14.24
2023-03-20T11:16:56.284Z,14.25
2023-03-20T11:19:28.888Z,14.24
2023-03-20T11:22:08.987Z,14.20
2023-03-20T11:24:46.815Z,14.12
2023-03-20T11:27:22.476Z,14.00
2023-03-20T11:29:57.219Z,13.96
2023-03-20T11:32:35.436Z,13.84
2023-03-20T11:35:20.816Z,13.71
2023-03-20T11:37:55.447Z,13.68
2023-03-20T11:40:32.681Z,13.63
2023-03-20T11:43:14.557Z,13.51
2023-03-20T11:45:49.464Z,13.39
2023-03-20T11:48:25.220Z,13.29
2023-03-20T11:51:06.719Z,13.22
2023-03-20T11:53:41.716Z,13.10
2023-03-20T11:56:23.951Z,12.99
2023-03-20T11:59:02.618Z,12.93
2023-03-20T12:01:45.333Z,12.85
2023-03-20T12:04:21.593Z,12.79
2023-03-20T12:06:59.043Z,12.82
2023-03-20T12:09:53.335Z,12.86
2023-03-20T12:12:37.013Z,12.95
2023-03-20T12:15:18.883Z,12.97
2023-03-20T12:17:58.607Z,13.04
2023-03-20T12:20:38.623Z,13.05
2023-03-20T12:23:16.523Z,13.16
2023-03-20T12:25:55.933Z,13.14
2023-03-20T12:28:34.870Z,13.13
2023-03-20T12:31:19.304Z,13.13
2023-03-20T12:33:56.572Z,13.19
2023-03-20T12:36:35.706Z,13.21
2023-03-20T12:39:14.663Z,13.26
2023-03-20T12:42:01.226Z,13.33
2023-03-20T12:44:41.093Z,13.37
2023-03-20T12:47:41.128Z,13.48
2023-03-20T12:50:26.064Z,13.55
2023-03-20T12:53:10.221Z,13.56
2023-03-20T12:55:46.489Z,13.47
2023-03-20T12:58:27.594Z,13.36
2023-03-20T13:01:05.656Z,13.37
2023-03-20T13:04:05.262Z,13.34
2023-03-20T13:06:52.140Z,13.26
2023-03-20T13:09:57.694Z,13.24
2023-03-20T13:12:39.996Z,13.10
2023-03-20T13:15:24.467Z,13.24
2023-03-20T13:18:03.382Z,13.35
2023-03-20T13:20:42.862Z,13.51
2023-03-20T13:23:25.404Z,13.58
2023-03-20T13:26:25.182Z,13.69
2023-03-20T13:29:05.804Z,13.77
2023-03-20T13:31:55.365Z,13.82
2023-03-20T13:34:38.232Z,13.86
2023-03-20T13:37:23.989Z,13.80
2023-03-20T13:40:07.088Z,13.73
2023-03-20T13:42:44.572Z,13.71
2023-03-20T13:45:35.445Z,13.59
2023-03-20T13:48:27.329Z,13.46
2023-03-20T13:51:10.033Z,13.43
2023-03-20T13:53:55.799Z,13.38
2023-03-20T13:56:37.764Z,13.23
2023-03-20T13:59:31.624Z,13.17
2023-03-20T14:02:18.272Z,13.13
2023-03-20T14:04:54.801Z,13.07
2023-03-20T14:07:36.813Z,13.06
2023-03-20T14:10:37.154Z,13.04
2023-03-20T14:13:16.022Z,13.05
2023-03-20T14:15:58.172Z,13.03
2023-03-20T14:18:33.293Z,13.05
2023-03-20T14:21:14.262Z,12.96
2023-03-20T14:23:50.945Z,12.89
2023-03-20T14:26:29.222Z,12.83
2023-03-20T14:29:21.091Z,12.76
2023-03-20T14:31:54.411Z,12.75
2023-03-20T14:34:27.080Z,12.74
2023-03-20T14:37:04.154Z,12.73
2023-03-20T14:39:46.220Z,12.69
2023-03-20T14:42:43.052Z,12.65
2023-03-20T14:45:43.906Z,12.62
2023-03-20T14:48:33.615Z,12.63
2023-03-20T14:51:24.541Z,12.63
2023-03-20T14:54:19.950Z,12.61
2023-03-20T14:56:54.582Z,12.59
2023-03-20T14:59:33.442Z,12.56
2023-03-20T15:02:07.820Z,12.55
2023-03-20T15:04:43.949Z,12.57
2023-03-20T15:07:24.640Z,12.58
2023-03-20T15:10:01.457Z,12.54
2023-03-20T15:12:36.782Z,12.53
2023-03-20T15:15:24.751Z,12.48
2023-03-20T15:18:05.155Z,12.41
2023-03-20T15:20:40.109Z,12.44
2023-03-20T15:23:14.314Z,12.47
2023-03-20T15:25:48.696Z,12.41
2023-03-20T15:28:25.110Z,12.40
2023-03-20T15:31:04.158Z,12.41
2023-03-20T15:33:42.842Z,12.33
2023-03-20T15:36:20.778Z,12.29
2023-03-20T15:39:04.472Z,12.32
2023-03-20T15:41:39.485Z,12.30
2023-03-20T15:44:24.214Z,12.28
2023-03-20T15:47:03.770Z,12.22
2023-03-20T15:49:37.258Z,12.19
2023-03-20T15:52:09.881Z,12.20
2023-03-20T15:54:46.493Z,12.12
2023-03-20T15:57:28.580Z,12.02
2023-03-20T16:00:02.872Z,12.02
2023-03-20T16:02:39.624Z,12.01
2023-03-20T16:05:17.589Z,11.99
2023-03-20T16:07:50.829Z,11.97
2023-03-20T16:10:29.744Z,11.99
2023-03-20T16:13:03.703Z,12.01
2023-03-20T16:15:37.024Z,12.00
2023-03-20T16:18:13.485Z,11.98
2023-03-20T16:20:53.713Z,11.96
2023-03-20T16:23:36.497Z,11.92
2023-03-20T16:26:13.353Z,11.92
2023-03-20T16:28:49.507Z,11.88
2023-03-20T16:31:27.832Z,11.85
2023-03-20T16:34:06.478Z,11.83
2023-03-20T16:36:41.143Z,11.79
2023-03-20T16:39:22.003Z,11.77
2023-03-20T16:42:04.500Z,11.72
2023-03-20T16:44:39.956Z,11.68
2023-03-20T16:47:24.182Z,11.61
2023-03-20T16:50:19.166Z,11.59
2023-03-20T16:52:57.858Z,11.53
2023-03-20T16:55:32.671Z,11.50
2023-03-20T16:58:09.046Z,11.46
2023-03-20T17:00:51.245Z,11.40
2023-03-20T17:03:31.464Z,11.34
2023-03-20T17:06:11.352Z,11.27
2023-03-20T17:08:48.477Z,11.26
2023-03-20T17:11:36.039Z,11.20
2023-03-20T17:14:09.213Z,11.11
2023-03-20T17:16:42.321Z,11.09
2023-03-20T17:19:19.075Z,11.06
2023-03-20T17:21:52.196Z,11.03
2023-03-20T17:24:24.894Z,11.00
2023-03-20T17:27:00.429Z,11.00
2023-03-20T17:29:34.118Z,10.99
2023-03-20T17:32:13.635Z,11.00
2023-03-20T17:34:47.371Z,10.96
2023-03-20T17:37:29.690Z,10.95
2023-03-20T17:40:08.390Z,10.88
2023-03-20T17:42:44.692Z,10.87
2023-03-20T17:45:20.833Z,10.86
2023-03-20T17:47:54.690Z,10.82
2023-03-20T17:50:28.039Z,10.80
2023-03-20T17:53:02.331Z,10.77
2023-03-20T17:55:36.901Z,10.75
2023-03-20T17:58:15.104Z,10.75
2023-03-20T18:00:48.329Z,10.72
2023-03-20T18:03:21.850Z,10.69
2023-03-20T18:05:55.114Z,10.66
2023-03-20T18:08:27.960Z,10.64
2023-03-20T18:11:01.415Z,10.61
2023-03-20T18:13:32.978Z,10.55
2023-03-20T18:16:08.868Z,10.41
2023-03-20T18:18:41.802Z,10.41
2023-03-20T18:21:17.716Z,10.38
2023-03-20T18:23:51.092Z,10.32
2023-03-20T18:26:26.282Z,10.29
2023-03-20T18:29:00.180Z,10.23
2023-03-20T18:31:33.886Z,10.19
2023-03-20T18:34:09.413Z,10.17
2023-03-20T18:36:44.183Z,10.16
2023-03-20T18:39:23.653Z,10.12
2023-03-20T18:41:59.901Z,10.05
2023-03-20T18:44:34.273Z,10.05
2023-03-20T18:47:12.759Z,9.99
2023-03-20T18:49:50.697Z,9.97
2023-03-20T18:52:26.942Z,9.94
2023-03-20T18:55:03.576Z,9.89
2023-03-20T18:57:43.302Z,9.86
2023-03-20T19:00:27.539Z,9.82
2023-03-20T19:03:07.042Z,9.76
2023-03-20T19:05:43.888Z,9.72
2023-03-20T19:08:23.758Z,9.71
2023-03-20T19:11:01.818Z,9.69
2023-03-20T19:13:37.314Z,9.68
2023-03-20T19:16:24.995Z,9.63
2023-03-20T19:19:01.976Z,9.61
2023-03-20T19:21:37.071Z,9.56
2023-03-20T19:24:12.814Z,9.57
2023-03-20T19:26:47.716Z,9.56
2023-03-20T19:29:21.697Z,9.54
2023-03-20T19:31:55.177Z,9.50
2023-03-20T19:35:10.807Z,9.46
2023-03-20T19:37:22.142Z,9.41
2023-03-20T19:39:56.017Z,9.38
2023-03-20T19:42:53.044Z,9.35
2023-03-20T19:45:24.002Z,9.33
2023-03-20T19:47:57.439Z,9.35
2023-03-20T19:50:35.452Z,9.36
2023-03-20T19:53:10.550Z,9.37
2023-03-20T19:55:43.887Z,9.40
2023-03-20T19:58:17.386Z,9.43
2023-03-20T20:00:59.248Z,9.43
2023-03-20T20:03:32.918Z,9.36
2023-03-20T20:06:06.381Z,9.41
2023-03-20T20:08:47.915Z,9.38
2023-03-20T20:11:22.984Z,9.39
2023-03-20T20:14:14.476Z,9.39
2023-03-20T20:16:49.392Z,9.39
2023-03-20T20:19:22.396Z,9.38
2023-03-20T20:22:20.108Z,9.40
2023-03-20T20:24:50.734Z,9.41
2023-03-20T20:27:27.565Z,9.42
2023-03-20T20:30:00.839Z,9.42
2023-03-20T20:32:34.215Z,9.43
2023-03-20T20:40:56.668Z,9.44
2023-03-20T20:44:06.759Z,9.45
2023-03-20T20:46:25.167Z,9.44
2023-03-20T20:49:13.021Z,9.43
2023-03-20T20:51:53.022Z,9.38
2023-03-20T20:54:26.531Z,9.35
2023-03-20T20:56:59.335Z,9.33
2023-03-20T20:59:33.061Z,9.34
2023-03-20T21:02:10.939Z,9.34
2023-03-20T21:04:45.520Z,9.28
2023-03-20T21:07:18.328Z,9.31
2023-03-20T21:09:56.563Z,9.33
2023-03-20T21:12:38.244Z,9.36
2023-03-20T21:15:16.284Z,9.37
2023-03-20T21:17:59.903Z,9.35
2023-03-20T21:20:34.270Z,9.26
2023-03-20T21:23:07.335Z,9.30
2023-03-20T21:25:44.651Z,9.30
2023-03-20T21:28:21.990Z,9.31
2023-03-20T21:31:22.748Z,9.31
2023-03-20T21:34:05.440Z,9.27
2023-03-20T21:36:38.559Z,9.27
2023-03-20T21:39:11.241Z,9.28
2023-03-20T21:41:44.760Z,9.27
2023-03-20T21:44:56.199Z,9.29
2023-03-20T21:53:34.938Z,9.28
2023-03-20T22:02:09.565Z,9.30
2023-03-20T22:05:18.825Z,9.29
2023-03-20T22:13:59.692Z,9.21
2023-03-20T22:17:17.554Z,9.20
2023-03-20T22:22:34.485Z,9.15
2023-03-20T22:39:50.957Z,9.09
2023-03-20T22:45:01.279Z,9.03
2023-03-20T22:47:35.941Z,9.03
2023-03-20T22:50:09.766Z,9.01
2023-03-20T22:52:49.265Z,9.01
2023-03-20T22:55:25.445Z,9.00
2023-03-20T22:58:06.701Z,8.94
2023-03-20T23:00:41.694Z,8.97
2023-03-20T23:03:22.685Z,9.01
2023-03-20T23:06:10.791Z,8.97
2023-03-20T23:08:50.720Z,8.97
2023-03-20T23:11:29.226Z,8.95
2023-03-20T23:14:03.672Z,8.95
2023-03-20T23:16:37.286Z,8.91
2023-03-20T23:19:09.893Z,8.89
2023-03-20T23:21:43.301Z,8.89
2023-03-20T23:24:17.211Z,8.88
2023-03-20T23:26:50.713Z,8.85
2023-03-20T23:29:23.674Z,8.80
2023-03-20T23:31:56.677Z,8.80
2023-03-20T23:34:29.307Z,8.79
2023-03-20T23:37:02.941Z,8.78
2023-03-20T23:39:33.643Z,8.79
2023-03-20T23:42:20.242Z,8.72
2023-03-20T23:45:02.213Z,8.71
2023-03-20T23:47:44.761Z,8.75
2023-03-20T23:50:27.407Z,8.78
2023-03-20T23:53:17.111Z,8.81
2023-03-20T23:55:54.734Z,8.80
2023-03-20T23:58:29.573Z,8.77
